createdAt,value
2018-02-19T00:00:43.838Z,16.30
2018-02-19T00:02:47.316Z,16.30
2018-02-19T00:04:50.703Z,16.30
2018-02-19T00:06:54.070Z,16.30
2018-02-19T00:08:57.443Z,16.30
2018-02-19T00:11:00.831Z,16.20
2018-02-19T00:13:04.218Z,16.20
2018-02-19T00:15:07.602Z,16.20
2018-02-19T00:17:10.964Z,16.20
2018-02-19T00:19:14.328Z,16.20
2018-02-19T00:21:18.474Z,16.10
2018-02-19T00:23:21.857Z,16.10
2018-02-19T00:25:25.260Z,16.10
2018-02-19T00:27:28.785Z,16.10
2018-02-19T00:29:32.158Z,16.10
2018-02-19T00:31:35.536Z,16.10
2018-02-19T00:33:38.903Z,16.10
2018-02-19T00:35:42.281Z,16.10
2018-02-19T00:37:45.850Z,16.10
2018-02-19T00:39:49.247Z,16.10
2018-02-19T00:41:52.642Z,16.00
2018-02-19T00:43:56.038Z,16.00
2018-02-19T00:45:59.413Z,16.00
2018-02-19T00:48:02.790Z,16.00
2018-02-19T00:50:06.181Z,16.00
2018-02-19T00:52:09.571Z,16.00
2018-02-19T00:54:12.943Z,16.00
2018-02-19T00:56:16.388Z,16.00
2018-02-19T00:58:19.774Z,16.00
2018-02-19T01:00:23.144Z,16.00
2018-02-19T01:02:26.531Z,15.90
2018-02-19T01:04:29.916Z,15.90
2018-02-19T01:06:33.404Z,15.90
2018-02-19T01:08:36.581Z,15.90
2018-02-19T01:10:39.946Z,15.90
2018-02-19T01:12:44.100Z,15.90
2018-02-19T01:14:47.477Z,15.90
2018-02-19T01:16:50.883Z,15.90
2018-02-19T01:18:54.303Z,15.80
2018-02-19T01:20:57.678Z,15.80
2018-02-19T01:23:01.059Z,15.80
2018-02-19T01:25:04.434Z,15.80
2018-02-19T01:27:07.793Z,15.80
2018-02-19T01:29:11.952Z,15.80
2018-02-19T01:31:15.351Z,15.80
2018-02-19T01:33:18.899Z,15.80
2018-02-19T01:35:22.082Z,15.80
2018-02-19T01:37:25.454Z,15.80
2018-02-19T01:39:28.817Z,15.80
2018-02-19T01:41:32.187Z,15.70
2018-02-19T01:43:36.317Z,15.70
2018-02-19T01:45:39.894Z,15.70
2018-02-19T01:47:43.260Z,15.70
2018-02-19T01:49:58.047Z,15.70
2018-02-19T01:52:01.412Z,15.70
2018-02-19T01:54:04.784Z,15.70
2018-02-19T01:56:08.146Z,15.70
2018-02-19T01:58:11.510Z,15.70
2018-02-19T02:00:14.889Z,15.70
2018-02-19T02:02:19.019Z,15.70
2018-02-19T02:04:22.387Z,15.60
2018-02-19T02:06:26.536Z,15.60
2018-02-19T02:08:29.916Z,15.60
2018-02-19T02:10:33.313Z,15.60
2018-02-19T02:12:36.678Z,15.60
2018-02-19T02:14:40.817Z,15.60
2018-02-19T02:16:44.189Z,15.60
2018-02-19T02:18:47.609Z,15.60
2018-02-19T02:20:51.061Z,15.60
2018-02-19T02:22:55.190Z,15.60
2018-02-19T02:24:59.313Z,15.50
2018-02-19T02:27:02.680Z,15.50
2018-02-19T02:29:06.809Z,15.50
2018-02-19T02:31:10.230Z,15.50
2018-02-19T02:33:13.605Z,15.50
2018-02-19T02:35:16.974Z,15.50
2018-02-19T02:37:21.109Z,15.50
2018-02-19T02:39:24.491Z,15.50
2018-02-19T02:41:27.925Z,15.50
2018-02-19T02:43:32.189Z,15.50
2018-02-19T02:45:35.565Z,15.50
2018-02-19T02:47:39.753Z,15.40
2018-02-19T02:49:43.136Z,15.50
2018-02-19T02:51:46.503Z,15.40
2018-02-19T02:53:49.880Z,15.40
2018-02-19T02:55:53.252Z,15.40
2018-02-19T02:57:56.631Z,15.40
2018-02-19T03:00:00.756Z,15.40
2018-02-19T03:02:04.900Z,15.40
2018-02-19T03:04:09.046Z,15.40
2018-02-19T03:06:12.424Z,15.40
2018-02-19T03:08:15.840Z,15.40
2018-02-19T03:10:19.218Z,15.40
2018-02-19T03:12:23.362Z,15.40
2018-02-19T03:14:27.537Z,15.30
2018-02-19T03:16:30.908Z,15.40
2018-02-19T03:18:34.278Z,15.30
2018-02-19T03:20:37.643Z,15.30
2018-02-19T03:22:41.770Z,15.30
2018-02-19T03:24:45.153Z,15.30
2018-02-19T03:26:48.513Z,15.30
2018-02-19T03:28:51.886Z,15.30
2018-02-19T03:30:55.252Z,15.30
2018-02-19T03:32:58.667Z,15.30
2018-02-19T03:35:02.059Z,15.30
2018-02-19T03:37:05.435Z,15.30
2018-02-19T03:39:08.807Z,15.30
2018-02-19T03:41:12.195Z,15.30
2018-02-19T03:43:15.568Z,15.20
2018-02-19T03:45:19.695Z,15.30
2018-02-19T03:47:23.067Z,15.20
2018-02-19T03:49:26.485Z,15.20
2018-02-19T03:51:29.849Z,15.30
2018-02-19T03:53:33.210Z,15.20
2018-02-19T03:55:36.576Z,15.20
2018-02-19T03:57:39.953Z,15.20
2018-02-19T03:59:43.321Z,15.20
2018-02-19T04:01:47.456Z,15.20
2018-02-19T04:03:50.833Z,15.10
2018-02-19T04:05:54.270Z,15.20
2018-02-19T04:07:57.665Z,15.20
2018-02-19T04:10:01.020Z,15.20
2018-02-19T04:12:04.425Z,15.20
2018-02-19T04:14:07.798Z,15.10
2018-02-19T04:16:11.151Z,15.20
2018-02-19T04:18:14.538Z,15.30
2018-02-19T04:20:17.902Z,15.30
2018-02-19T04:22:21.264Z,15.40
2018-02-19T04:24:25.408Z,15.60
2018-02-19T04:26:28.799Z,15.60
2018-02-19T04:28:32.163Z,15.70
2018-02-19T04:30:35.548Z,15.80
2018-02-19T04:32:39.490Z,16.10
2018-02-19T04:34:42.876Z,16.10
2018-02-19T04:36:46.243Z,16.30
2018-02-19T04:38:49.622Z,16.40
2018-02-19T04:40:53.754Z,16.60
2018-02-19T04:43:12.039Z,16.60
2018-02-19T04:45:20.810Z,16.80
2018-02-19T04:47:24.315Z,16.90
2018-02-19T04:49:27.675Z,17.00
2018-02-19T04:51:31.816Z,17.30
2018-02-19T04:53:35.361Z,17.20
2018-02-19T04:55:38.755Z,17.40
2018-02-19T04:57:42.134Z,17.50
2018-02-19T04:59:45.516Z,17.60
2018-02-19T05:01:48.778Z,17.70
2018-02-19T05:03:52.159Z,17.80
2018-02-19T05:05:55.565Z,17.90
2018-02-19T05:07:58.957Z,18.00
2018-02-19T05:10:02.365Z,18.10
2018-02-19T05:12:05.742Z,18.20
2018-02-19T05:14:09.175Z,18.20
2018-02-19T05:16:12.581Z,18.30
2018-02-19T05:18:15.961Z,18.40
2018-02-19T05:20:20.087Z,18.50
2018-02-19T05:22:23.491Z,18.50
2018-02-19T05:24:26.958Z,18.60
2018-02-19T05:26:30.375Z,18.60
2018-02-19T05:28:34.506Z,18.80
2018-02-19T05:30:37.873Z,18.80
2018-02-19T05:32:41.246Z,18.90
2018-02-19T05:34:44.606Z,19.00
2018-02-19T05:36:48.028Z,19.10
2018-02-19T05:38:51.395Z,19.20
2018-02-19T05:40:54.761Z,19.30
2018-02-19T05:42:58.133Z,19.40
2018-02-19T05:45:02.312Z,19.50
2018-02-19T05:47:05.683Z,19.50
2018-02-19T05:49:09.068Z,19.60
2018-02-19T05:51:12.459Z,19.70
2018-02-19T05:53:15.874Z,19.70
2018-02-19T05:55:20.106Z,19.70
2018-02-19T05:57:23.557Z,19.70
2018-02-19T05:59:26.924Z,19.80
2018-02-19T06:01:30.394Z,19.80
2018-02-19T06:03:33.834Z,19.80
2018-02-19T06:05:37.200Z,19.80
2018-02-19T06:07:41.342Z,19.70
2018-02-19T06:09:44.749Z,19.70
2018-02-19T06:11:48.133Z,19.70
2018-02-19T06:13:51.493Z,19.60
2018-02-19T06:15:54.860Z,19.60
2018-02-19T06:17:58.217Z,19.50
2018-02-19T06:20:01.678Z,19.50
2018-02-19T06:22:05.229Z,19.40
2018-02-19T06:24:09.407Z,19.10
2018-02-19T06:26:12.816Z,19.10
2018-02-19T06:28:16.277Z,19.10
2018-02-19T06:30:19.762Z,19.00
2018-02-19T06:32:23.219Z,18.90
2018-02-19T06:34:27.571Z,18.70
2018-02-19T06:36:31.127Z,18.70
2018-02-19T06:38:34.699Z,18.60
2018-02-19T06:40:38.219Z,18.50
2018-02-19T06:42:41.740Z,18.50
2018-02-19T06:44:45.992Z,18.30
2018-02-19T06:46:49.618Z,18.30
2018-02-19T06:48:53.105Z,18.20
2018-02-19T06:50:56.646Z,18.10
2018-02-19T06:53:00.210Z,18.00
2018-02-19T06:55:03.741Z,17.90
2018-02-19T06:57:07.234Z,17.90
2018-02-19T06:59:11.527Z,17.70
2018-02-19T07:01:15.221Z,17.70
2018-02-19T07:03:18.678Z,17.70
2018-02-19T07:05:22.248Z,17.60
2018-02-19T07:07:25.881Z,17.60
2018-02-19T07:09:29.418Z,17.50
2018-02-19T07:11:33.722Z,17.40
2018-02-19T07:13:37.224Z,17.40
2018-02-19T07:15:40.718Z,17.40
2018-02-19T07:17:45.044Z,17.30
2018-02-19T07:19:49.259Z,17.20
2018-02-19T07:21:52.831Z,17.20
2018-02-19T07:23:56.348Z,17.20
2018-02-19T07:26:00.666Z,17.10
2018-02-19T07:28:04.206Z,17.00
2018-02-19T07:30:07.747Z,17.00
2018-02-19T07:32:11.984Z,16.90
2018-02-19T07:34:15.556Z,16.90
2018-02-19T07:36:19.808Z,16.80
2018-02-19T07:38:23.276Z,16.80
2018-02-19T07:40:26.900Z,16.80
2018-02-19T07:42:30.452Z,16.70
2018-02-19T07:44:34.058Z,16.70
2018-02-19T07:46:38.331Z,16.70
2018-02-19T07:48:41.835Z,16.60
2018-02-19T07:50:45.472Z,16.60
2018-02-19T07:52:48.971Z,16.60
2018-02-19T07:54:52.496Z,16.50
2018-02-19T07:56:56.117Z,16.50
2018-02-19T07:58:59.696Z,16.50
2018-02-19T08:01:03.301Z,16.40
2018-02-19T08:03:06.759Z,16.40
2018-02-19T08:05:10.249Z,16.30
2018-02-19T08:07:13.826Z,16.30
2018-02-19T08:09:18.105Z,16.30
2018-02-19T08:11:21.582Z,16.20
2018-02-19T08:13:25.116Z,16.20
2018-02-19T08:15:28.650Z,16.20
2018-02-19T08:17:32.239Z,16.20
2018-02-19T08:19:35.632Z,16.20
2018-02-19T08:21:39.123Z,16.10
2018-02-19T08:23:42.542Z,16.10
2018-02-19T08:25:46.048Z,16.10
2018-02-19T08:27:49.518Z,16.10
2018-02-19T08:29:53.053Z,16.10
2018-02-19T08:31:56.614Z,16.00
2018-02-19T08:34:00.081Z,16.00
2018-02-19T08:36:03.680Z,16.00
2018-02-19T08:38:08.024Z,15.90
2018-02-19T08:40:11.493Z,15.90
2018-02-19T08:42:15.064Z,15.90
2018-02-19T08:44:18.501Z,15.90
2018-02-19T08:46:21.999Z,15.90
2018-02-19T08:48:25.631Z,15.90
2018-02-19T08:50:29.279Z,15.90
2018-02-19T08:52:32.704Z,15.80
2018-02-19T08:54:36.248Z,15.80
2018-02-19T08:56:40.557Z,15.80
2018-02-19T08:58:44.802Z,15.80
2018-02-19T09:00:48.310Z,15.70
2018-02-19T09:02:51.842Z,15.80
2018-02-19T09:04:55.364Z,15.70
2018-02-19T09:06:58.895Z,15.70
2018-02-19T09:09:02.378Z,15.70
2018-02-19T09:11:05.971Z,15.70
2018-02-19T09:13:09.442Z,15.70
2018-02-19T09:15:13.873Z,15.60
2018-02-19T09:17:17.542Z,15.60
2018-02-19T09:19:21.117Z,15.60
2018-02-19T09:21:24.877Z,15.60
2018-02-19T09:23:28.419Z,15.60
2018-02-19T09:25:31.934Z,15.60
2018-02-19T09:27:35.406Z,15.60
2018-02-19T09:29:38.841Z,15.60
2018-02-19T09:31:43.189Z,15.50
2018-02-19T09:33:46.805Z,15.50
2018-02-19T09:35:50.273Z,15.50
2018-02-19T09:37:53.897Z,15.50
2018-02-19T09:39:57.384Z,15.50
2018-02-19T09:42:01.026Z,15.50
2018-02-19T09:44:05.332Z,15.50
2018-02-19T09:46:08.865Z,15.50
2018-02-19T09:48:12.403Z,15.50
2018-02-19T09:50:15.862Z,15.50
2018-02-19T09:52:19.361Z,15.50
2018-02-19T09:54:22.883Z,15.50
2018-02-19T09:56:26.501Z,15.50
2018-02-19T09:58:30.205Z,15.40
2018-02-19T10:00:33.887Z,15.40
2018-02-19T10:02:37.380Z,15.40
2018-02-19T10:04:40.951Z,15.40
2018-02-19T10:06:44.499Z,15.40
2018-02-19T10:08:48.800Z,15.40
2018-02-19T10:10:53.155Z,15.40
2018-02-19T10:12:57.234Z,15.30
2018-02-19T10:15:01.518Z,15.40
2018-02-19T10:17:04.988Z,15.30
2018-02-19T10:19:08.484Z,15.40
2018-02-19T10:21:12.041Z,15.40
2018-02-19T10:23:15.697Z,15.30
2018-02-19T10:25:19.234Z,15.30
2018-02-19T10:27:23.511Z,15.30
2018-02-19T10:29:27.140Z,15.30
2018-02-19T10:31:32.585Z,15.30
2018-02-19T10:33:37.048Z,15.30
2018-02-19T10:35:40.669Z,15.30
2018-02-19T10:37:44.271Z,15.30
2018-02-19T10:39:47.810Z,15.20
2018-02-19T10:41:51.312Z,15.20
2018-02-19T10:43:54.817Z,15.20
2018-02-19T10:45:58.261Z,15.20
2018-02-19T10:48:01.712Z,15.20
2018-02-19T10:50:05.233Z,15.20
2018-02-19T10:52:08.800Z,15.20
2018-02-19T10:54:12.303Z,15.20
2018-02-19T10:56:15.821Z,15.20
2018-02-19T10:58:19.371Z,15.20
2018-02-19T11:00:28.654Z,15.20
2018-02-19T11:02:32.228Z,15.30
2018-02-19T11:04:35.823Z,15.30
2018-02-19T11:06:39.413Z,15.40
2018-02-19T11:08:43.072Z,15.40
2018-02-19T11:10:47.364Z,15.50
2018-02-19T11:12:51.021Z,15.50
2018-02-19T11:14:54.635Z,15.60
2018-02-19T11:16:58.161Z,15.70
2018-02-19T11:19:02.439Z,15.80
2018-02-19T11:21:05.959Z,15.80
2018-02-19T11:23:09.488Z,15.90
2018-02-19T11:25:12.947Z,15.90
2018-02-19T11:27:16.434Z,16.00
2018-02-19T11:29:20.800Z,16.10
2018-02-19T11:31:24.281Z,16.00
2018-02-19T11:33:28.514Z,16.20
2018-02-19T11:35:32.027Z,16.10
2018-02-19T11:37:35.526Z,16.20
2018-02-19T11:39:39.047Z,16.20
2018-02-19T11:41:42.563Z,16.30
2018-02-19T11:43:46.918Z,16.30
2018-02-19T11:45:51.287Z,16.30
2018-02-19T11:47:54.794Z,16.30
2018-02-19T11:49:59.036Z,16.40
2018-02-19T11:52:02.516Z,16.40
2018-02-19T11:54:06.017Z,16.40
2018-02-19T11:56:09.513Z,16.40
2018-02-19T11:58:12.949Z,16.40
2018-02-19T12:00:16.416Z,16.40
2018-02-19T12:02:19.875Z,16.40
2018-02-19T12:04:23.478Z,16.40
2018-02-19T12:06:27.811Z,16.30
2018-02-19T12:08:31.322Z,16.30
2018-02-19T12:10:34.789Z,16.30
2018-02-19T12:12:38.279Z,16.30
2018-02-19T12:14:41.724Z,16.30
2018-02-19T12:16:45.234Z,16.20
2018-02-19T12:18:48.687Z,16.20
2018-02-19T12:20:52.200Z,16.20
2018-02-19T12:22:55.744Z,16.10
2018-02-19T12:24:59.321Z,16.10
2018-02-19T12:27:03.633Z,16.10
2018-02-19T12:29:07.154Z,16.00
2018-02-19T12:31:11.415Z,16.10
2018-02-19T12:33:14.906Z,16.00
2018-02-19T12:35:18.409Z,16.00
2018-02-19T12:37:21.901Z,16.00
2018-02-19T12:39:25.393Z,16.00
2018-02-19T12:41:28.921Z,15.90
2018-02-19T12:43:32.414Z,15.90
2018-02-19T12:45:36.027Z,15.90
2018-02-19T12:47:40.257Z,15.80
2018-02-19T12:49:43.748Z,15.80
2018-02-19T12:51:47.211Z,15.80
2018-02-19T12:53:50.680Z,15.70
2018-02-19T12:55:54.138Z,15.70
2018-02-19T12:57:57.596Z,15.70
2018-02-19T13:00:01.107Z,15.60
2018-02-19T13:02:05.367Z,15.60
2018-02-19T13:04:08.822Z,15.60
2018-02-19T13:06:12.304Z,15.60
2018-02-19T13:08:16.739Z,15.50
2018-02-19T13:10:20.243Z,15.50
2018-02-19T13:12:23.788Z,15.50
2018-02-19T13:14:27.246Z,15.50
2018-02-19T13:16:30.769Z,15.50
2018-02-19T13:18:34.626Z,15.40
2018-02-19T13:20:38.135Z,15.40
2018-02-19T13:22:41.631Z,15.40
2018-02-19T13:24:45.178Z,15.40
2018-02-19T13:26:48.691Z,15.40
2018-02-19T13:28:52.991Z,15.30
2018-02-19T13:30:57.261Z,15.30
2018-02-19T13:33:00.772Z,15.30
2018-02-19T13:35:04.311Z,15.30
2018-02-19T13:37:07.856Z,15.30
2018-02-19T13:39:11.306Z,15.30
2018-02-19T13:41:14.937Z,15.30
2018-02-19T13:43:18.921Z,15.20
2018-02-19T13:45:22.632Z,15.20
2018-02-19T13:47:26.540Z,15.30
2018-02-19T13:49:31.315Z,15.30
2018-02-19T13:51:34.855Z,15.30
2018-02-19T13:53:38.413Z,15.30
2018-02-19T13:55:42.736Z,15.40
2018-02-19T13:57:47.061Z,15.50
2018-02-19T13:59:50.467Z,15.50
2018-02-19T14:01:53.849Z,15.60
2018-02-19T14:03:57.228Z,15.70
2018-02-19T14:06:01.398Z,15.80
2018-02-19T14:08:04.784Z,15.80
2018-02-19T14:10:08.191Z,16.00
2018-02-19T14:12:11.581Z,16.00
2018-02-19T14:14:14.945Z,16.10
2018-02-19T14:16:18.331Z,16.20
2018-02-19T14:18:21.691Z,16.30
2018-02-19T14:20:25.841Z,16.40
2018-02-19T14:22:29.214Z,16.40
2018-02-19T14:24:32.590Z,16.40
2018-02-19T14:26:36.751Z,16.50
2018-02-19T14:28:40.357Z,16.50
2018-02-19T14:30:43.713Z,16.50
2018-02-19T14:32:47.087Z,16.50
2018-02-19T14:34:50.266Z,16.50
2018-02-19T14:36:54.410Z,16.50
2018-02-19T14:38:57.854Z,16.50
2018-02-19T14:41:01.225Z,16.50
2018-02-19T14:43:04.616Z,16.60
2018-02-19T14:45:08.058Z,16.60
2018-02-19T14:47:11.426Z,16.60
2018-02-19T14:49:14.796Z,16.60
2018-02-19T14:51:18.987Z,16.60
2018-02-19T14:53:22.647Z,16.60
2018-02-19T14:55:26.043Z,16.60
2018-02-19T14:57:29.420Z,16.50
2018-02-19T14:59:34.950Z,16.50
2018-02-19T15:01:38.368Z,16.50
2018-02-19T15:03:42.508Z,16.40
2018-02-19T15:05:45.899Z,16.40
2018-02-19T15:07:49.267Z,16.40
2018-02-19T15:09:52.647Z,16.40
2018-02-19T15:11:56.776Z,16.30
2018-02-19T15:14:00.190Z,16.30
2018-02-19T15:16:03.713Z,16.30
2018-02-19T15:18:06.941Z,16.30
2018-02-19T15:20:11.102Z,16.40
2018-02-19T15:22:14.488Z,16.40
2018-02-19T15:24:17.857Z,16.50
2018-02-19T15:26:21.222Z,16.50
2018-02-19T15:28:24.591Z,16.60
2018-02-19T15:30:27.980Z,16.70
2018-02-19T15:32:31.363Z,16.80
2018-02-19T15:34:34.767Z,16.90
2018-02-19T15:36:38.135Z,17.10
2018-02-19T15:38:41.502Z,17.20
2018-02-19T15:40:44.890Z,17.30
2018-02-19T15:42:48.337Z,17.40
2018-02-19T15:44:51.806Z,17.50
2018-02-19T15:46:55.223Z,17.60
2018-02-19T15:48:58.624Z,17.70
2018-02-19T15:51:02.080Z,17.80
2018-02-19T15:53:05.464Z,17.90
2018-02-19T15:55:08.850Z,18.00
2018-02-19T15:57:12.279Z,18.10
2018-02-19T15:59:15.644Z,18.20
2018-02-19T16:01:19.071Z,18.30
2018-02-19T16:03:22.459Z,18.50
2018-02-19T16:05:25.832Z,18.50
2018-02-19T16:07:29.226Z,18.60
2018-02-19T16:09:32.667Z,18.70
2018-02-19T16:11:36.111Z,18.70
2018-02-19T16:13:40.577Z,18.80
2018-02-19T16:15:44.021Z,18.80
2018-02-19T16:17:47.475Z,18.90
2018-02-19T16:19:50.908Z,18.90
2018-02-19T16:21:54.401Z,19.00
2018-02-19T16:23:58.082Z,19.10
2018-02-19T16:26:01.493Z,19.10
2018-02-19T16:28:04.987Z,19.20
2018-02-19T16:30:08.513Z,19.30
2018-02-19T16:32:12.675Z,19.40
2018-02-19T16:34:16.183Z,19.50
2018-02-19T16:36:19.681Z,19.60
2018-02-19T16:38:25.579Z,19.60
2018-02-19T16:40:29.046Z,19.60
2018-02-19T16:42:33.216Z,19.70
2018-02-19T16:44:36.713Z,19.70
2018-02-19T16:46:40.264Z,19.70
2018-02-19T16:48:43.705Z,19.70
2018-02-19T16:50:47.760Z,19.70
2018-02-19T16:52:51.484Z,19.70
2018-02-19T16:54:55.679Z,19.80
2018-02-19T16:56:59.829Z,19.80
2018-02-19T16:59:03.250Z,19.70
2018-02-19T17:01:06.644Z,19.80
2018-02-19T17:03:10.094Z,19.70
2018-02-19T17:05:13.962Z,19.70
2018-02-19T17:07:17.498Z,19.60
2018-02-19T17:09:20.888Z,19.60
2018-02-19T17:11:24.295Z,19.60
2018-02-19T17:13:27.841Z,19.50
2018-02-19T17:15:31.262Z,19.50
2018-02-19T17:17:35.554Z,19.40
2018-02-19T17:19:39.763Z,19.40
2018-02-19T17:21:44.929Z,19.40
2018-02-19T17:23:48.338Z,19.40
2018-02-19T17:25:52.343Z,19.30
2018-02-19T17:27:56.130Z,19.30
2018-02-19T17:30:00.005Z,19.30
2018-02-19T17:32:03.491Z,19.30
2018-02-19T17:34:07.016Z,19.20
2018-02-19T17:36:11.246Z,19.20
2018-02-19T17:38:15.942Z,19.20
2018-02-19T17:40:19.424Z,19.20
2018-02-19T17:42:22.968Z,19.20
2018-02-19T17:44:26.618Z,19.20
2018-02-19T17:46:30.070Z,19.10
2018-02-19T17:48:33.453Z,19.10
2018-02-19T17:50:37.255Z,19.10
2018-02-19T17:52:40.812Z,19.10
2018-02-19T17:54:45.150Z,19.10
2018-02-19T17:56:49.411Z,19.10
2018-02-19T17:58:52.971Z,19.10
2018-02-19T18:00:56.683Z,19.10
2018-02-19T18:03:00.687Z,19.10
2018-02-19T18:05:04.900Z,19.10
2018-02-19T18:07:08.282Z,19.10
2018-02-19T18:09:11.703Z,19.10
2018-02-19T18:11:16.632Z,19.00
2018-02-19T18:13:19.999Z,19.00
2018-02-19T18:15:23.468Z,19.10
2018-02-19T18:17:27.660Z,19.00
2018-02-19T18:19:31.650Z,19.00
2018-02-19T18:21:35.086Z,19.00
2018-02-19T18:23:38.472Z,18.90
2018-02-19T18:25:41.884Z,19.00
2018-02-19T18:27:45.295Z,19.00
2018-02-19T18:29:48.678Z,18.90
2018-02-19T18:31:52.117Z,18.90
2018-02-19T18:33:56.898Z,18.90
2018-02-19T18:36:00.303Z,18.90
2018-02-19T18:38:03.861Z,18.90
2018-02-19T18:40:07.277Z,18.90
2018-02-19T18:42:10.713Z,18.90
2018-02-19T18:44:14.887Z,18.90
2018-02-19T18:46:18.310Z,18.90
2018-02-19T18:48:21.715Z,18.80
2018-02-19T18:50:25.942Z,18.90
2018-02-19T18:52:30.118Z,18.80
2018-02-19T18:54:33.679Z,18.80
2018-02-19T18:56:37.112Z,18.80
2018-02-19T18:58:41.004Z,18.80
2018-02-19T19:00:44.728Z,18.80
2018-02-19T19:02:49.018Z,18.80
2018-02-19T19:04:52.377Z,18.90
2018-02-19T19:06:55.903Z,18.80
2018-02-19T19:09:10.802Z,18.90
2018-02-19T19:11:14.340Z,18.90
2018-02-19T19:13:18.272Z,19.00
2018-02-19T19:15:21.713Z,19.00
2018-02-19T19:17:26.163Z,19.00
2018-02-19T19:19:29.720Z,19.00
2018-02-19T19:21:34.173Z,19.10
2018-02-19T19:23:37.590Z,19.10
2018-02-19T19:25:41.217Z,19.20
2018-02-19T19:27:45.374Z,19.20
2018-02-19T19:29:48.833Z,19.20
2018-02-19T19:31:52.974Z,19.20
2018-02-19T19:33:57.219Z,19.20
2018-02-19T19:36:00.452Z,19.20
2018-02-19T19:38:05.131Z,19.20
2018-02-19T19:40:08.652Z,19.20
2018-02-19T19:42:12.847Z,19.20
2018-02-19T19:44:16.270Z,19.20
2018-02-19T19:46:19.710Z,19.20
2018-02-19T19:48:23.096Z,19.20
2018-02-19T19:50:26.845Z,19.20
2018-02-19T19:52:32.262Z,19.30
2018-02-19T19:54:36.807Z,19.30
2018-02-19T19:56:40.291Z,19.30
2018-02-19T19:58:45.429Z,19.30
2018-02-19T20:00:50.293Z,19.30
2018-02-19T20:02:54.220Z,19.30
2018-02-19T20:04:58.417Z,19.30
2018-02-19T20:07:01.883Z,19.30
2018-02-19T20:09:07.617Z,19.30
2018-02-19T20:11:12.248Z,19.30
2018-02-19T20:13:16.486Z,19.30
2018-02-19T20:15:20.037Z,19.20
2018-02-19T20:17:23.534Z,19.20
2018-02-19T20:19:27.057Z,19.20
2018-02-19T20:21:30.530Z,19.20
2018-02-19T20:23:35.091Z,19.20
2018-02-19T20:25:39.548Z,19.10
2018-02-19T20:27:43.447Z,19.10
2018-02-19T20:29:47.753Z,19.10
2018-02-19T20:31:55.700Z,19.10
2018-02-19T20:33:59.206Z,19.10
2018-02-19T20:36:02.408Z,19.10
2018-02-19T20:38:05.866Z,19.10
2018-02-19T20:40:11.026Z,19.10
2018-02-19T20:42:14.446Z,19.00
2018-02-19T20:44:18.329Z,19.00
2018-02-19T20:46:22.118Z,19.00
2018-02-19T20:48:25.608Z,19.00
2018-02-19T20:50:29.286Z,19.00
2018-02-19T20:52:33.482Z,18.90
2018-02-19T20:54:36.883Z,18.90
2018-02-19T20:56:41.079Z,18.90
2018-02-19T20:58:44.529Z,18.80
2018-02-19T21:00:48.151Z,18.80
2018-02-19T21:02:51.621Z,18.80
2018-02-19T21:04:55.056Z,18.80
2018-02-19T21:06:58.436Z,18.70
2018-02-19T21:09:01.802Z,18.70
2018-02-19T21:11:05.240Z,18.60
2018-02-19T21:13:09.409Z,18.60
2018-02-19T21:15:12.819Z,18.60
2018-02-19T21:17:16.655Z,18.50
2018-02-19T21:19:21.527Z,18.50
2018-02-19T21:21:25.944Z,18.40
2018-02-19T21:23:30.104Z,18.40
2018-02-19T21:25:33.757Z,18.30
2018-02-19T21:27:38.133Z,18.30
2018-02-19T21:29:41.821Z,18.20
2018-02-19T21:31:46.912Z,18.10
2018-02-19T21:33:51.646Z,18.10
2018-02-19T21:35:55.836Z,18.10
2018-02-19T21:37:59.259Z,18.00
2018-02-19T21:40:03.547Z,18.00
2018-02-19T21:42:08.443Z,17.90
2018-02-19T21:44:12.842Z,17.90
2018-02-19T21:46:16.332Z,17.80
2018-02-19T21:48:19.778Z,17.80
2018-02-19T21:50:23.980Z,17.70
2018-02-19T21:52:27.608Z,17.70
2018-02-19T21:54:31.037Z,17.60
2018-02-19T21:56:35.618Z,17.60
2018-02-19T21:58:39.948Z,17.50
2018-02-19T22:00:44.557Z,17.50
2018-02-19T22:02:48.323Z,17.50
2018-02-19T22:04:52.113Z,17.50
2018-02-19T22:06:58.660Z,17.40
2018-02-19T22:09:02.292Z,17.30
2018-02-19T22:11:05.702Z,17.30
2018-02-19T22:13:11.235Z,17.20
2018-02-19T22:15:15.530Z,17.20
2018-02-19T22:17:19.818Z,17.20
2018-02-19T22:19:24.707Z,17.10
2018-02-19T22:21:29.266Z,17.10
2018-02-19T22:23:34.025Z,17.10
2018-02-19T22:25:38.755Z,17.10
2018-02-19T22:27:42.221Z,17.00
2018-02-19T22:29:48.083Z,16.90
2018-02-19T22:31:53.562Z,16.90
2018-02-19T22:33:57.964Z,16.80
2018-02-19T22:36:01.366Z,16.80
2018-02-19T22:38:04.793Z,16.80
2018-02-19T22:40:09.181Z,16.80
2018-02-19T22:42:14.897Z,16.70
2018-02-19T22:44:18.477Z,16.70
2018-02-19T22:46:21.860Z,16.70
2018-02-19T22:48:25.261Z,16.70
2018-02-19T22:50:31.486Z,16.70
2018-02-19T22:52:36.333Z,16.60
2018-02-19T22:54:40.799Z,16.60
2018-02-19T22:56:44.378Z,16.50
2018-02-19T22:58:49.073Z,16.50
2018-02-19T23:00:52.512Z,16.50
2018-02-19T23:02:56.618Z,16.40
2018-02-19T23:05:00.009Z,16.40
2018-02-19T23:07:04.321Z,16.40
2018-02-19T23:09:08.810Z,16.40
2018-02-19T23:11:12.229Z,16.30
2018-02-19T23:13:15.753Z,16.30
2018-02-19T23:15:19.165Z,16.30
2018-02-19T23:17:23.458Z,16.20
2018-02-19T23:19:26.869Z,16.20
2018-02-19T23:21:30.667Z,16.20
2018-02-19T23:23:33.901Z,16.20
2018-02-19T23:25:37.348Z,16.10
2018-02-19T23:27:40.734Z,16.10
2018-02-19T23:29:44.148Z,16.10
2018-02-19T23:31:48.337Z,16.10
2018-02-19T23:33:51.740Z,16.00
2018-02-19T23:35:55.146Z,16.20
2018-02-19T23:37:59.358Z,16.00
2018-02-19T23:40:03.530Z,16.00
2018-02-19T23:42:06.739Z,16.00
2018-02-19T23:44:10.959Z,16.00
2018-02-19T23:46:15.114Z,15.90
2018-02-19T23:48:18.539Z,15.90
2018-02-19T23:50:21.913Z,15.90
2018-02-19T23:52:25.292Z,15.90
2018-02-19T23:54:35.134Z,15.90
2018-02-19T23:56:38.541Z,15.90
2018-02-19T23:58:41.987Z,15.80
